Time;durP1;ratioP1;P1;durP2;ratioP2;P2;SDS_P1;SDS_P2;PMS_P1;PMS_P2;Temp;Humidity;BMP_temperature;BMP_pressure;BME280_temperature;BME280_humidity;BME280_pressure;Samples;Min_cycle;Max_cycle;Signal;HPM_P1;HPM_P2
2022/11/10 00:00:21;;;;;;;20.83;14.05;;;;;;;10.05;100.00;98956.41;5035349;28;20174;-55
2022/11/10 00:02:47;;;;;;;19.75;13.90;;;;;;;10.08;100.00;98942.47;5034957;28;20691;-55
2022/11/10 00:05:14;;;;;;;27.60;16.77;;;;;;;10.14;100.00;98952.47;5035053;28;20174;-56
2022/11/10 00:07:40;;;;;;;23.73;15.93;;;;;;;10.18;100.00;98961.72;5035010;28;20255;-56
2022/11/10 00:10:06;;;;;;;28.40;16.10;;;;;;;10.21;100.00;98956.38;5034941;28;20261;-56
2022/11/10 00:12:33;;;;;;;26.42;17.92;;;;;;;10.07;100.00;98956.31;5035032;28;20170;-55
2022/11/10 00:17:43;;;;;;;28.92;19.98;;;;;;;9.96;100.00;98953.50;5035118;28;20166;-56
2022/11/10 00:20:10;;;;;;;34.33;20.15;;;;;;;10.03;100.00;98959.97;5034665;28;20177;-56
2022/11/10 00:22:36;;;;;;;36.00;21.60;;;;;;;10.14;100.00;98967.97;5016841;28;20195;-56
2022/11/10 00:25:03;;;;;;;32.38;21.42;;;;;;;10.02;100.00;98973.81;5033843;28;20190;-56
2022/11/10 00:27:28;;;;;;;33.15;20.58;;;;;;;10.06;100.00;98959.84;5034816;28;20190;-56
2022/11/10 00:29:54;;;;;;;32.42;20.83;;;;;;;9.93;100.00;98964.03;5034432;28;20556;-56
2022/11/10 00:32:20;;;;;;;30.52;19.90;;;;;;;9.90;100.00;98964.19;5034441;28;20171;-56
2022/11/10 00:34:45;;;;;;;31.15;19.83;;;;;;;9.93;100.00;98956.25;5034591;28;20178;-56
2022/11/10 00:37:10;;;;;;;28.73;19.92;;;;;;;9.96;100.00;98948.31;5034368;28;20171;-56
2022/11/10 00:39:36;;;;;;;30.15;20.90;;;;;;;9.96;100.00;98954.34;5034053;28;20166;-56
2022/11/10 00:42:02;;;;;;;31.80;19.25;;;;;;;9.68;100.00;98936.16;5034197;28;20667;-56
2022/11/10 00:44:27;;;;;;;29.50;19.63;;;;;;;9.64;100.00;98947.56;5034140;28;20221;-56
2022/11/10 00:46:53;;;;;;;25.65;18.42;;;;;;;9.72;100.00;98943.72;5034468;28;20182;-56
2022/11/10 00:49:18;;;;;;;24.25;17.80;;;;;;;9.57;100.00;98929.94;5034271;28;20177;-55
2022/11/10 00:51:43;;;;;;;20.42;14.77;;;;;;;9.68;100.00;98937.88;5035010;28;20249;-56
2022/11/10 00:54:09;;;;;;;22.45;15.38;;;;;;;9.96;100.00;98935.41;5034135;28;20581;-56
2022/11/10 00:56:34;;;;;;;20.38;14.15;;;;;;;10.04;100.00;98941.00;5034005;28;20174;-56
2022/11/10 00:59:00;;;;;;;18.95;14.20;;;;;;;10.13;100.00;98933.53;5034032;28;20171;-56
2022/11/10 01:01:25;;;;;;;18.33;13.38;;;;;;;10.18;100.00;98928.94;5033952;28;20269;-56
2022/11/10 01:03:53;;;;;;;17.08;13.48;;;;;;;10.23;100.00;98928.66;5034095;28;20206;-55
2022/11/10 01:06:20;;;;;;;19.67;13.07;;;;;;;10.19;100.00;98930.59;5033858;28;20236;-55
2022/11/10 01:08:45;;;;;;;19.38;13.38;;;;;;;10.13;100.00;98930.13;5033806;28;20178;-55
2022/11/10 01:11:15;;;;;;;19.42;14.18;;;;;;;10.10;100.00;98940.66;5033706;28;20729;-55
2022/11/10 01:13:41;;;;;;;15.73;12.45;;;;;;;10.04;100.00;98934.06;5033693;28;20194;-56
2022/11/10 01:16:10;;;;;;;20.08;13.73;;;;;;;10.07;100.00;98934.81;5033696;28;20171;-56
2022/11/10 01:18:35;;;;;;;18.38;13.45;;;;;;;9.96;100.00;98935.41;5033618;28;20181;-56
2022/11/10 01:21:01;;;;;;;18.30;13.07;;;;;;;10.00;100.00;98935.16;5033711;28;20257;-56
2022/11/10 01:23:27;;;;;;;26.83;15.10;;;;;;;9.91;100.00;98933.09;5033457;28;20190;-56
2022/11/10 01:26:06;;;;;;;23.73;17.98;;;;;;;9.90;100.00;98940.91;5033572;28;20711;-56
2022/11/10 01:28:32;;;;;;;36.67;21.13;;;;;;;9.90;100.00;98940.91;5015724;28;20176;-56
2022/11/10 01:30:58;;;;;;;40.38;24.48;;;;;;;9.94;100.00;98943.25;5033344;28;20174;-55
2022/11/10 01:33:23;;;;;;;35.28;23.20;;;;;;;9.98;100.00;98947.31;5015534;28;20174;-56
2022/11/10 01:35:48;;;;;;;38.55;23.80;;;;;;;9.92;100.00;98944.28;5033303;28;20678;-55
2022/11/10 01:38:14;;;;;;;38.08;22.20;;;;;;;9.68;100.00;98943.06;5033276;28;20171;-56
2022/11/10 01:40:39;;;;;;;36.50;23.77;;;;;;;9.70;100.00;98943.81;5033220;28;20178;-56
2022/11/10 01:43:05;;;;;;;31.40;20.75;;;;;;;9.61;100.00;98933.97;5033304;28;20286;-56
2022/11/10 01:45:58;;;;;;;37.67;22.42;;;;;;;9.56;100.00;98928.25;5033444;28;20679;-55
2022/11/10 01:48:30;;;;;;;32.40;20.25;;;;;;;9.58;100.00;98929.00;5033561;28;20721;-56
2022/11/10 01:51:01;;;;;;;33.25;22.05;;;;;;;9.55;100.00;98921.41;5032802;28;20177;-56
2022/11/10 01:53:29;;;;;;;32.70;20.00;;;;;;;9.28;100.00;98910.06;5033051;28;20159;-56
2022/11/10 01:55:55;;;;;;;28.67;19.35;;;;;;;9.38;100.00;98921.53;5032891;28;20213;-56
2022/11/10 01:58:25;;;;;;;24.92;17.42;;;;;;;9.24;100.00;98921.47;5032834;28;20182;-56
2022/11/10 02:00:50;;;;;;;28.90;18.15;;;;;;;9.04;100.00;98928.63;5033035;28;20201;-55
2022/11/10 02:03:33;;;;;;;23.65;17.42;;;;;;;9.07;100.00;98934.47;5032670;28;20576;-55
2022/11/10 02:05:59;;;;;;;26.13;19.33;;;;;;;9.10;100.00;98943.78;5032832;28;20166;-55
2022/11/10 02:08:26;;;;;;;27.00;18.38;;;;;;;9.20;100.00;98932.88;5032650;28;20269;-55
2022/11/10 02:10:51;;;;;;;26.50;15.48;;;;;;;9.23;100.00;98935.28;5032733;28;20190;-55
2022/11/10 02:13:17;;;;;;;22.83;17.13;;;;;;;9.24;100.00;98936.94;5032859;28;20167;-55
2022/11/10 02:15:42;;;;;;;28.05;17.70;;;;;;;9.07;100.00;98929.28;5032526;28;20166;-54
2022/11/10 02:18:08;;;;;;;25.88;16.55;;;;;;;9.19;100.00;98928.63;5032707;28;20166;-55
2022/11/10 02:20:34;;;;;;;22.17;14.95;;;;;;;9.48;100.00;98925.25;5032413;28;20573;-55
2022/11/10 02:23:10;;;;;;;18.88;15.05;;;;;;;9.49;100.00;98926.94;5032555;28;20198;-55
2022/11/10 02:25:36;;;;;;;21.17;13.57;;;;;;;9.52;100.00;98930.16;5032549;28;20158;-54
2022/11/10 02:28:01;;;;;;;21.88;14.73;;;;;;;9.46;100.00;98934.88;5032343;28;20554;-55
2022/11/10 02:30:27;;;;;;;20.35;14.23;;;;;;;9.42;100.00;98915.28;5032315;28;20201;-55
2022/11/10 02:32:52;;;;;;;24.83;16.65;;;;;;;9.52;100.00;98936.25;5032140;28;20205;-55
2022/11/10 02:35:18;;;;;;;30.50;18.10;;;;;;;9.47;100.00;98941.69;5032366;28;20554;-55
2022/11/10 02:37:43;;;;;;;30.58;20.20;;;;;;;9.47;100.00;98933.94;5032295;28;20253;-55
2022/11/10 02:40:09;;;;;;;26.40;17.90;;;;;;;9.51;100.00;98943.19;5032110;28;20659;-55
2022/11/10 02:42:34;;;;;;;27.30;17.27;;;;;;;9.49;100.00;98942.41;5032066;28;20364;-55
2022/11/10 02:44:59;;;;;;;29.85;17.52;;;;;;;9.48;100.00;98945.09;5031874;28;20210;-55
2022/11/10 02:47:25;;;;;;;31.10;19.38;;;;;;;9.49;100.00;98945.00;5032086;28;20170;-55
2022/11/10 02:49:50;;;;;;;24.52;17.65;;;;;;;9.48;100.00;98945.94;5032276;28;20178;-55
2022/11/10 02:52:16;;;;;;;29.67;19.88;;;;;;;9.35;100.00;98951.84;5032041;28;20209;-55
2022/11/10 02:54:41;;;;;;;29.52;18.83;;;;;;;9.18;100.00;98947.63;5032089;28;20163;-55
2022/11/10 02:57:07;;;;;;;29.92;20.05;;;;;;;9.08;100.00;98950.78;5032116;28;20193;-55
2022/11/10 02:59:32;;;;;;;34.85;20.98;;;;;;;8.98;100.00;98952.19;5032096;28;20185;-55
2022/11/10 03:01:58;;;;;;;26.02;18.48;;;;;;;8.92;100.00;98950.75;5031989;28;20626;-55
2022/11/10 03:04:23;;;;;;;32.60;20.02;;;;;;;8.78;100.00;98949.81;5031828;28;20640;-56
2022/11/10 03:06:48;;;;;;;35.70;23.65;;;;;;;8.86;100.00;98950.25;5032091;28;20190;-56
2022/11/10 03:09:14;;;;;;;35.90;22.40;;;;;;;9.01;100.00;98958.00;5031700;28;20178;-55
2022/11/10 03:11:39;;;;;;;39.28;22.88;;;;;;;8.95;100.00;98953.19;5031669;28;20269;-56
2022/11/10 03:14:05;;;;;;;37.08;23.92;;;;;;;8.88;100.00;98959.59;5031591;28;20166;-56
2022/11/10 03:16:30;;;;;;;35.72;23.20;;;;;;;8.80;100.00;98956.56;5031664;28;20291;-55
2022/11/10 03:18:55;;;;;;;40.63;22.77;;;;;;;8.60;100.00;98954.22;5031922;28;20193;-55
2022/11/10 03:21:21;;;;;;;36.38;23.88;;;;;;;8.64;100.00;98953.16;5031879;28;20270;-55
2022/11/10 03:23:46;;;;;;;34.55;22.50;;;;;;;8.74;100.00;98951.72;5031848;28;20236;-55
2022/11/10 03:26:13;;;;;;;34.72;21.63;;;;;;;8.71;100.00;98949.31;5031736;28;20546;-55
2022/11/10 03:28:38;;;;;;;36.72;22.85;;;;;;;8.72;100.00;98950.13;5031677;28;20174;-55
2022/11/10 03:31:04;;;;;;;36.13;22.80;;;;;;;8.85;100.00;98953.75;5031548;28;20162;-55
2022/11/10 03:33:29;;;;;;;35.72;21.92;;;;;;;8.94;100.00;98948.09;5031614;28;20240;-55
2022/11/10 03:35:54;;;;;;;34.72;23.67;;;;;;;8.98;100.00;98945.25;5031501;28;20620;-55
2022/11/10 03:38:20;;;;;;;33.03;22.73;;;;;;;9.00;100.00;98943.44;5031518;28;20174;-55
2022/11/10 03:40:45;;;;;;;35.28;21.80;;;;;;;9.06;100.00;98943.13;5031767;28;20175;-55
2022/11/10 03:43:11;;;;;;;33.15;21.10;;;;;;;9.11;100.00;98945.44;5031600;28;20607;-55
2022/11/10 03:45:36;;;;;;;34.22;22.17;;;;;;;9.09;100.00;98948.09;5031414;28;20206;-55
2022/11/10 03:48:02;;;;;;;31.98;22.10;;;;;;;9.10;100.00;98954.09;5031452;28;20174;-55
2022/11/10 03:50:27;;;;;;;33.92;22.30;;;;;;;9.12;100.00;98947.94;5031692;28;20647;-55
2022/11/10 03:52:53;;;;;;;34.55;21.63;;;;;;;9.06;100.00;98943.13;5031331;28;20163;-55
2022/11/10 03:55:18;;;;;;;37.42;22.33;;;;;;;9.10;100.00;98944.59;5031349;28;20183;-55
2022/11/10 03:57:43;;;;;;;34.13;22.33;;;;;;;9.12;100.00;98947.94;5031283;28;20556;-56
2022/11/10 04:00:11;;;;;;;35.88;23.77;;;;;;;8.97;100.00;98942.78;5031564;28;20170;-55
2022/11/10 04:02:38;;;;;;;36.05;23.45;;;;;;;9.03;100.00;98945.84;5031113;28;20194;-55
2022/11/10 04:10:42;;;;;;;34.00;24.60;;;;;;;9.03;100.00;98957.94;5031836;28;20162;-55
2022/11/10 04:15:52;;;;;;;37.85;23.00;;;;;;;8.65;100.00;98966.84;5034886;28;20260;-55
2022/11/10 04:18:20;;;;;;;33.55;23.05;;;;;;;8.70;100.00;98963.13;5034836;28;20213;-55
2022/11/10 04:20:53;;;;;;;40.03;23.27;;;;;;;8.75;100.00;98963.72;5034781;28;20174;-55
2022/11/10 04:23:26;;;;;;;32.50;22.58;;;;;;;8.58;100.00;98958.63;5034655;28;20273;-56
2022/11/10 04:28:53;;;;;;;40.63;23.27;;;;;;;8.62;100.00;98952.38;5034838;28;20181;-55
2022/11/10 04:31:20;;;;;;;36.55;23.50;;;;;;;8.48;100.00;98951.41;5034480;28;20177;-55
2022/11/10 04:33:46;;;;;;;33.22;22.08;;;;;;;8.42;100.00;98957.72;5034682;28;20169;-55
2022/11/10 04:36:14;;;;;;;32.55;21.13;;;;;;;8.55;100.00;98951.03;5034489;28;20261;-55
2022/11/10 04:38:40;;;;;;;37.88;22.00;;;;;;;8.74;100.00;98956.88;5034689;28;20187;-55
2022/11/10 04:41:07;;;;;;;35.60;22.50;;;;;;;8.80;100.00;98955.75;5034302;28;20201;-55
2022/11/10 04:43:32;;;;;;;31.63;21.33;;;;;;;8.72;100.00;98955.28;5034007;28;20263;-55
2022/11/10 04:45:58;;;;;;;34.30;20.90;;;;;;;8.76;100.00;98961.97;5034551;28;20612;-55
2022/11/10 04:48:24;;;;;;;33.55;21.77;;;;;;;8.84;100.00;98962.38;5034183;28;20174;-55
2022/11/10 04:50:50;;;;;;;31.15;20.25;;;;;;;8.69;100.00;98958.88;5034207;28;20265;-55
2022/11/10 04:53:15;;;;;;;30.15;20.65;;;;;;;8.60;100.00;98958.50;5034165;28;20248;-55
2022/11/10 04:55:42;;;;;;;37.00;23.17;;;;;;;8.63;100.00;98972.09;5034235;28;20236;-55
2022/11/10 04:58:08;;;;;;;36.90;22.95;;;;;;;8.54;100.00;98970.00;5033904;28;20186;-55
2022/11/10 05:00:35;;;;;;;36.25;24.13;;;;;;;8.66;100.00;98973.66;5034022;28;20170;-55
2022/11/10 05:03:03;;;;;;;33.38;22.33;;;;;;;8.65;100.00;98978.03;5033764;28;20604;-55
2022/11/10 05:05:29;;;;;;;37.47;23.25;;;;;;;8.61;100.00;98973.06;5034057;28;20281;-55
2022/11/10 05:07:55;;;;;;;34.28;22.02;;;;;;;8.71;100.00;98972.53;5033889;28;20201;-55
2022/11/10 05:10:20;;;;;;;27.40;20.02;;;;;;;8.67;100.00;98981.34;5016275;28;20186;-55
2022/11/10 05:12:46;;;;;;;31.77;20.25;;;;;;;8.70;100.00;98970.88;5034179;28;20170;-55
2022/11/10 05:15:11;;;;;;;26.15;18.15;;;;;;;8.86;100.00;98983.81;5033850;28;20171;-55
2022/11/10 05:17:37;;;;;;;30.80;18.92;;;;;;;8.86;100.00;98971.72;5033680;28;20174;-55
2022/11/10 05:20:03;;;;;;;29.95;19.38;;;;;;;8.74;100.00;98980.09;5033695;28;20249;-55
2022/11/10 05:22:29;;;;;;;28.13;19.70;;;;;;;8.74;100.00;98990.44;5033527;28;20199;-55
2022/11/10 05:24:54;;;;;;;30.42;19.95;;;;;;;8.77;100.00;98992.84;5033368;28;20232;-55
2022/11/10 05:27:20;;;;;;;32.53;20.33;;;;;;;8.78;100.00;98989.34;5015166;28;20276;-55
2022/11/10 05:29:45;;;;;;;31.10;21.65;;;;;;;8.84;100.00;98996.78;5033794;28;20178;-55
2022/11/10 05:32:10;;;;;;;32.63;20.20;;;;;;;8.92;100.00;99001.53;5034084;28;20181;-55
2022/11/10 05:34:36;;;;;;;31.77;20.48;;;;;;;8.94;100.00;98997.97;5033487;28;20171;-55
2022/11/10 05:37:01;;;;;;;28.90;19.67;;;;;;;8.94;100.00;98997.13;5033285;28;20171;-55
2022/11/10 05:39:26;;;;;;;29.60;19.25;;;;;;;8.95;100.00;98994.47;5033490;28;20228;-55
2022/11/10 05:41:52;;;;;;;25.95;17.80;;;;;;;9.02;100.00;99000.97;5033802;28;20257;-55
2022/11/10 05:44:17;;;;;;;23.15;16.77;;;;;;;9.09;100.00;99004.88;5032994;28;20245;-55
2022/11/10 05:46:43;;;;;;;21.40;15.77;;;;;;;9.17;100.00;99007.06;5033213;28;20242;-55
2022/11/10 05:49:08;;;;;;;22.25;13.27;;;;;;;9.26;100.00;98996.25;5033146;28;20663;-55
2022/11/10 05:51:33;;;;;;;17.00;12.73;;;;;;;9.43;100.00;99012.50;5033362;28;20217;-55
2022/11/10 05:53:59;;;;;;;21.98;12.65;;;;;;;9.52;100.00;99016.34;5032941;28;20666;-55
2022/11/10 05:56:24;;;;;;;18.13;12.52;;;;;;;9.68;100.00;99021.41;5032896;28;20189;-55
2022/11/10 05:58:50;;;;;;;17.63;12.48;;;;;;;9.81;100.00;99021.56;5032934;28;20167;-55
2022/11/10 06:01:15;;;;;;;20.17;12.52;;;;;;;9.78;100.00;99019.16;5033168;28;20174;-55
2022/11/10 06:03:40;;;;;;;18.05;12.00;;;;;;;9.84;100.00;99022.22;5032745;28;20288;-55
2022/11/10 06:06:06;;;;;;;19.50;12.55;;;;;;;10.01;100.00;99034.19;5032797;28;20174;-55
2022/11/10 06:08:32;;;;;;;19.35;13.50;;;;;;;10.04;100.00;99039.25;5032737;28;20570;-55
2022/11/10 06:10:58;;;;;;;27.75;17.23;;;;;;;10.16;100.00;99048.91;5032836;28;20205;-55
2022/11/10 06:13:24;;;;;;;33.38;19.95;;;;;;;10.22;100.00;99044.19;5032826;28;20181;-55
2022/11/10 06:15:49;;;;;;;37.10;21.35;;;;;;;10.19;100.00;99048.72;5032521;28;20691;-55
2022/11/10 06:18:15;;;;;;;40.17;22.90;;;;;;;10.16;100.00;99043.72;5032584;28;20171;-55
2022/11/10 06:20:40;;;;;;;38.95;22.88;;;;;;;10.24;100.00;99052.72;5032799;28;20189;-55
2022/11/10 06:23:09;;;;;;;35.40;23.58;;;;;;;10.30;100.00;99048.94;5032441;28;20684;-55
2022/11/10 06:25:36;;;;;;;40.72;25.08;;;;;;;10.36;100.00;99046.84;5032499;28;20237;-55
2022/11/10 06:28:02;;;;;;;35.33;23.02;;;;;;;10.48;100.00;99050.47;5032442;28;20544;-55
2022/11/10 06:30:29;;;;;;;37.80;22.08;;;;;;;10.52;100.00;99051.97;5032425;28;20659;-55
2022/11/10 06:32:54;;;;;;;37.45;24.25;;;;;;;10.59;100.00;99059.28;5032491;28;20584;-55
2022/11/10 06:35:21;;;;;;;35.00;21.60;;;;;;;10.70;100.00;99061.22;5032291;28;20261;-55
2022/11/10 06:38:06;;;;;;;46.25;24.27;;;;;;;10.79;100.00;99069.28;5032076;28;20170;-55
2022/11/10 06:40:32;;;;;;;35.33;23.27;;;;;;;10.78;100.00;99059.00;5032481;28;20151;-55
2022/11/10 06:42:58;;;;;;;38.08;23.77;;;;;;;10.87;100.00;99058.47;5032265;28;20226;-55
2022/11/10 06:45:27;;;;;;;33.80;22.00;;;;;;;10.99;100.00;99068.09;5032086;28;20214;-55
2022/11/10 06:48:01;;;;;;;27.48;19.55;;;;;;;11.15;100.00;99071.44;5032374;28;20182;-55
2022/11/10 06:50:27;;;;;;;35.30;22.35;;;;;;;11.32;100.00;99076.44;5032391;28;20259;-56
2022/11/10 06:52:56;;;;;;;37.22;22.85;;;;;;;11.30;100.00;99060.13;5032305;28;20262;-55
2022/11/10 06:55:22;;;;;;;16.83;12.77;;;;;;;11.36;100.00;99068.38;5032060;28;20174;-55
2022/11/10 06:57:47;;;;;;;17.50;12.45;;;;;;;11.47;100.00;99075.50;5031993;28;20196;-55
2022/11/10 07:00:14;;;;;;;15.73;11.43;;;;;;;11.39;100.00;99068.19;5014314;28;20236;-55
2022/11/10 07:02:39;;;;;;;14.88;10.90;;;;;;;11.36;100.00;99073.56;5031899;28;20194;-55
2022/11/10 07:05:05;;;;;;;18.00;10.88;;;;;;;11.44;100.00;99071.31;5031920;28;20260;-55
2022/11/10 07:07:30;;;;;;;15.52;10.70;;;;;;;11.38;100.00;99073.47;5014162;28;20189;-55
2022/11/10 07:09:56;;;;;;;14.38;10.52;;;;;;;11.40;100.00;99074.22;5031690;28;20186;-55
2022/11/10 07:12:21;;;;;;;15.30;11.02;;;;;;;11.35;100.00;99069.31;5031866;28;20170;-55
2022/11/10 07:14:46;;;;;;;16.60;11.73;;;;;;;11.38;100.00;99070.88;5031991;28;20170;-55
2022/11/10 07:17:12;;;;;;;16.10;10.82;;;;;;;11.34;100.00;99074.59;5031765;28;20220;-55
2022/11/10 07:19:37;;;;;;;21.20;13.90;;;;;;;11.50;100.00;99077.91;5031813;28;20177;-55
2022/11/10 07:22:02;;;;;;;26.13;17.13;;;;;;;11.45;100.00;99072.16;5031518;28;20189;-55
2022/11/10 07:24:29;;;;;;;29.98;19.55;;;;;;;11.46;100.00;99076.44;5031945;28;20182;-55
2022/11/10 07:26:56;;;;;;;29.70;18.83;;;;;;;11.40;100.00;99056.06;5032020;28;20247;-55
2022/11/10 07:29:21;;;;;;;33.55;19.60;;;;;;;11.58;100.00;99078.25;5031911;28;20585;-55
2022/11/10 07:31:47;;;;;;;38.70;22.58;;;;;;;11.67;100.00;99078.53;5031521;28;20171;-56
2022/11/10 07:34:12;;;;;;;33.83;23.70;;;;;;;11.83;100.00;99076.66;5031622;28;20185;-55
2022/11/10 07:36:38;;;;;;;41.17;25.98;;;;;;;11.95;100.00;99080.22;5031696;28;20228;-55
2022/11/10 07:39:03;;;;;;;41.20;25.77;;;;;;;12.06;100.00;99075.19;5031625;28;20182;-55
2022/11/10 07:41:29;;;;;;;41.40;27.65;;;;;;;12.10;100.00;99072.34;5031594;28;20305;-55
2022/11/10 07:43:54;;;;;;;45.92;27.88;;;;;;;12.25;100.00;99088.69;5031253;28;20265;-55
2022/11/10 07:46:19;;;;;;;39.22;26.63;;;;;;;12.33;100.00;99079.47;5031565;28;20162;-55
2022/11/10 07:48:45;;;;;;;46.92;28.20;;;;;;;12.40;100.00;99091.09;5031692;28;20701;-55
2022/11/10 07:51:10;;;;;;;41.25;27.77;;;;;;;12.41;100.00;99091.91;5035728;28;20166;-55
2022/11/10 07:53:36;;;;;;;48.13;31.73;;;;;;;12.48;100.00;99083.63;5035383;28;20565;-55
2022/11/10 07:56:01;;;;;;;47.97;30.25;;;;;;;12.53;100.00;99080.72;5035622;28;20195;-55
2022/11/10 07:58:28;;;;;;;50.33;29.30;;;;;;;12.48;100.00;99064.66;5035240;28;20166;-55
2022/11/10 08:00:53;;;;;;;38.03;25.25;;;;;;;12.56;100.00;99076.19;5035438;28;20235;-55
2022/11/10 08:03:20;;;;;;;38.25;24.10;;;;;;;12.73;100.00;99086.28;5035422;28;20206;-55
2022/11/10 08:05:46;;;;;;;39.38;25.48;;;;;;;12.81;100.00;99090.97;5035137;28;20179;-55
2022/11/10 08:08:12;;;;;;;43.03;26.35;;;;;;;12.90;100.00;99085.16;5035124;28;20666;-55
2022/11/10 08:10:40;;;;;;;42.55;26.17;;;;;;;12.99;100.00;99080.22;5035028;28;20174;-55
2022/11/10 08:13:07;;;;;;;46.97;27.73;;;;;;;13.09;100.00;99093.41;5035028;28;20177;-55
2022/11/10 08:15:34;;;;;;;46.92;28.95;;;;;;;12.93;100.00;99064.16;5035003;28;20175;-56
2022/11/10 08:18:04;;;;;;;45.80;27.90;;;;;;;13.19;100.00;99100.47;5034898;28;20180;-56
2022/11/10 08:20:30;;;;;;;48.60;27.25;;;;;;;13.30;100.00;99100.56;5034910;28;20559;-56
2022/11/10 08:23:01;;;;;;;50.22;29.90;;;;;;;13.36;100.00;99107.94;5034780;28;20220;-56
2022/11/10 08:25:28;;;;;;;52.13;28.08;;;;;;;13.38;100.00;99107.84;5016988;28;20651;-55
2022/11/10 08:27:59;;;;;;;61.38;30.85;;;;;;;13.43;100.00;99106.63;5034791;28;20202;-56
2022/11/10 08:30:25;;;;;;;58.65;30.70;;;;;;;13.28;100.00;99106.81;5034742;28;20171;-56
2022/11/10 08:32:56;;;;;;;57.45;30.23;;;;;;;13.35;100.00;99105.47;5034885;28;20182;-55
2022/11/10 08:35:23;;;;;;;62.45;30.17;;;;;;;13.42;100.00;99110.13;5034591;28;20220;-56
2022/11/10 08:37:49;;;;;;;54.00;28.52;;;;;;;13.45;100.00;99107.31;5035269;28;20186;-55
2022/11/10 08:40:15;;;;;;;59.45;29.50;;;;;;;13.56;100.00;99111.78;5034491;28;20268;-55
2022/11/10 08:42:41;;;;;;;52.25;28.60;;;;;;;13.59;100.00;99111.56;5034269;28;20616;-56
2022/11/10 08:45:07;;;;;;;50.50;29.17;;;;;;;13.61;100.00;99109.69;5034192;28;20213;-56
2022/11/10 08:47:32;;;;;;;43.97;26.50;;;;;;;13.63;100.00;99113.00;5034590;28;20170;-56
2022/11/10 08:49:57;;;;;;;47.83;27.77;;;;;;;13.68;100.00;99106.56;5034460;28;20173;-56
2022/11/10 08:52:23;;;;;;;50.97;29.45;;;;;;;13.66;100.00;99099.81;5034266;28;20178;-56
2022/11/10 08:54:48;;;;;;;43.58;27.35;;;;;;;13.75;100.00;99106.94;5034847;28;20259;-56
2022/11/10 08:57:13;;;;;;;46.75;27.25;;;;;;;13.72;100.00;99102.78;5034156;28;20662;-56
2022/11/10 08:59:39;;;;;;;44.58;28.15;;;;;;;13.79;100.00;99108.41;5034166;28;20167;-56
2022/11/10 09:02:04;;;;;;;63.30;27.70;;;;;;;13.80;100.00;99104.84;5034020;28;20552;-56
2022/11/10 09:04:30;;;;;;;50.65;27.25;;;;;;;13.86;100.00;99099.22;5034097;28;20270;-56
2022/11/10 09:06:56;;;;;;;40.30;25.92;;;;;;;13.94;100.00;99097.72;5034327;28;20549;-57
2022/11/10 09:09:23;;;;;;;45.33;25.92;;;;;;;14.01;100.00;99101.56;5034243;28;20174;-56
2022/11/10 09:11:49;;;;;;;47.10;26.30;;;;;;;14.03;100.00;99096.25;5033890;28;20181;-56
2022/11/10 09:14:14;;;;;;;47.65;27.77;;;;;;;14.09;100.00;99096.66;5033895;28;20166;-56
2022/11/10 09:16:40;;;;;;;41.95;26.98;;;;;;;14.16;100.00;99102.22;5034345;28;20178;-55
2022/11/10 09:19:05;;;;;;;49.42;28.13;;;;;;;14.10;100.00;99097.47;5034028;28;20174;-55
2022/11/10 09:21:31;;;;;;;40.75;26.33;;;;;;;14.21;100.00;99100.16;5033584;28;20186;-55
2022/11/10 09:23:56;;;;;;;42.20;24.70;;;;;;;14.15;100.00;99097.97;5033520;28;20198;-55
2022/11/10 09:26:21;;;;;;;41.95;24.88;;;;;;;14.12;100.00;99086.00;5033904;28;20253;-55
2022/11/10 09:28:48;;;;;;;48.90;28.33;;;;;;;14.14;100.00;99096.31;5033895;28;20179;-56
2022/11/10 09:31:13;;;;;;;48.22;26.50;;;;;;;14.14;100.00;99089.34;5033663;28;20174;-55
2022/11/10 09:33:39;;;;;;;42.17;25.23;;;;;;;14.12;100.00;99090.41;5033504;28;20232;-55
2022/11/10 09:36:05;;;;;;;41.75;25.73;;;;;;;14.18;100.00;99089.97;5033727;28;20217;-55
2022/11/10 09:38:31;;;;;;;41.83;25.77;;;;;;;14.18;100.00;99074.34;5033382;28;20205;-55
2022/11/10 09:40:56;;;;;;;44.65;27.52;;;;;;;14.32;100.00;99082.84;5033613;28;20170;-56
2022/11/10 09:43:41;;;;;;;44.55;27.15;;;;;;;14.41;100.00;99076.13;5033180;28;20194;-55
2022/11/10 09:46:22;;;;;;;40.05;24.17;;;;;;;14.56;99.73;99078.44;5033286;28;20162;-55
2022/11/10 09:48:57;;;;;;;41.50;24.60;;;;;;;14.62;99.59;99077.13;5033598;28;20224;-56
2022/11/10 09:51:37;;;;;;;43.47;25.02;;;;;;;14.62;98.60;99082.34;5033154;28;20197;-55
2022/11/10 09:54:24;;;;;;;39.60;23.58;;;;;;;14.63;98.22;99079.63;5033449;28;20178;-55
2022/11/10 09:56:52;;;;;;;38.08;22.92;;;;;;;14.71;98.99;99077.31;5033109;28;20178;-56
2022/11/10 09:59:29;;;;;;;39.00;23.45;;;;;;;14.80;98.65;99081.81;5033297;28;20187;-56
2022/11/10 10:02:09;;;;;;;36.10;24.63;;;;;;;14.93;98.11;99079.13;5032924;28;20710;-57
2022/11/10 10:04:43;;;;;;;39.22;23.48;;;;;;;15.09;95.92;99074.38;5032968;28;20166;-56
2022/11/10 10:07:17;;;;;;;36.88;24.27;;;;;;;15.05;95.90;99073.78;5032978;28;20170;-56
2022/11/10 10:09:53;;;;;;;35.08;24.00;;;;;;;15.07;96.24;99076.28;5032899;28;20166;-57
2022/11/10 10:12:41;;;;;;;43.80;25.05;;;;;;;15.12;96.61;99071.56;5032339;28;20543;-56
2022/11/10 10:15:12;;;;;;;38.28;22.85;;;;;;;15.18;94.88;99065.88;5032849;28;20623;-56
2022/11/10 10:17:57;;;;;;;41.97;23.50;;;;;;;15.29;94.49;99071.09;5033157;28;20204;-57
2022/11/10 10:20:30;;;;;;;37.35;21.88;;;;;;;15.37;92.48;99066.16;5032833;28;20162;-56
2022/11/10 10:23:08;;;;;;;38.00;23.05;;;;;;;15.40;92.64;99065.94;5032614;28;20679;-56
2022/11/10 10:25:37;;;;;;;38.08;21.80;;;;;;;15.46;92.80;99062.84;5032723;28;20162;-56
2022/11/10 10:28:26;;;;;;;36.35;19.65;;;;;;;15.51;93.13;99068.53;5032790;28;20619;-57
2022/11/10 10:30:52;;;;;;;60.08;20.52;;;;;;;15.66;92.24;99062.09;5004444;28;20197;-57
2022/11/10 10:33:20;;;;;;;37.83;20.83;;;;;;;15.82;90.98;99057.34;5032437;28;20248;-57
2022/11/10 10:35:48;;;;;;;36.92;21.45;;;;;;;16.00;89.12;99058.47;5032401;28;20577;-57
2022/11/10 10:38:23;;;;;;;33.45;22.23;;;;;;;16.08;87.89;99050.84;5032633;28;20615;-56
2022/11/10 10:40:51;;;;;;;28.52;20.20;;;;;;;16.12;89.02;99047.03;5032625;28;20260;-56
2022/11/10 10:43:17;;;;;;;31.98;20.45;;;;;;;16.20;88.73;99047.28;5032157;28;20227;-56
2022/11/10 10:45:42;;;;;;;32.88;22.20;;;;;;;16.26;88.04;99044.16;5031969;28;20234;-56
2022/11/10 10:48:41;;;;;;;36.75;21.60;;;;;;;16.36;88.10;99040.66;5032469;28;20261;-56
2022/11/10 10:51:06;;;;;;;34.67;20.08;;;;;;;16.45;87.09;99034.69;4989130;28;20659;-56
2022/11/10 10:53:43;;;;;;;37.97;21.05;;;;;;;16.53;87.10;99036.69;5032098;28;20276;-56
2022/11/10 10:56:23;;;;;;;34.28;20.27;;;;;;;16.61;85.71;99042.94;5032032;28;20174;-56
2022/11/10 10:58:59;;;;;;;38.05;22.23;;;;;;;16.68;85.54;99035.44;5032129;28;20169;-56
2022/11/10 11:01:33;;;;;;;35.90;22.17;;;;;;;16.75;84.71;99037.41;5031951;28;20181;-56
2022/11/10 11:03:59;;;;;;;31.38;21.50;;;;;;;16.80;84.33;99034.41;5032400;28;20683;-54
2022/11/10 11:06:31;;;;;;;36.97;20.92;;;;;;;16.79;85.02;99032.75;5032178;28;20556;-54
2022/11/10 11:09:21;;;;;;;35.92;22.67;;;;;;;16.81;84.25;99029.06;5031933;28;20545;-55
2022/11/10 11:12:21;;;;;;;35.03;21.65;;;;;;;16.79;84.60;99027.53;5032191;28;20167;-55
2022/11/10 11:14:46;;;;;;;39.42;22.38;;;;;;;16.82;83.85;99028.09;5016775;28;20633;-55
2022/11/10 11:17:17;;;;;;;31.05;22.17;;;;;;;16.76;83.39;99027.75;5031634;28;20186;-55
2022/11/10 11:19:43;;;;;;;33.22;23.13;;;;;;;16.82;84.72;99033.31;5031799;28;20702;-56
2022/11/10 11:22:49;;;;;;;31.77;21.00;;;;;;;16.89;83.41;99023.16;5031698;28;20209;-55
2022/11/10 11:25:36;;;;;;;34.50;22.02;;;;;;;16.91;83.46;99026.47;5034476;28;20213;-55
2022/11/10 11:28:23;;;;;;;31.10;21.27;;;;;;;16.93;82.37;99020.16;5036242;28;20158;-55
2022/11/10 11:31:02;;;;;;;36.88;22.30;;;;;;;16.96;83.27;99019.09;5035699;28;20170;-55